sensor_id;sensor_type;location;lat;lon;timestamp;temperature;humidity
10312;DHT22;5201;48.776;9.128;2023-01-19T00:01:11;-1.30;99.90
10312;DHT22;5201;48.776;9.128;2023-01-19T00:03:36;-1.20;99.90
10312;DHT22;5201;48.776;9.128;2023-01-19T00:06:06;-1.10;99.90
10312;DHT22;5201;48.776;9.128;2023-01-19T00:08:32;-1.20;99.90
10312;DHT22;5201;48.776;9.128;2023-01-19T00:10:57;-1.20;99.90
10312;DHT22;5201;48.776;9.128;2023-01-19T00:13:23;-1.20;99.90
10312;DHT22;5201;48.776;9.128;2023-01-19T00:15:48;-1.10;99.90
10312;DHT22;5201;48.776;9.128;2023-01-19T00:18:14;-0.90;99.90
10312;DHT22;5201;48.776;9.128;2023-01-19T00:20:40;-2.60;99.90
10312;DHT22;5201;48.776;9.128;2023-01-19T00:23:06;-1.00;99.90
10312;DHT22;5201;48.776;9.128;2023-01-19T00:25:32;-0.80;99.90
10312;DHT22;5201;48.776;9.128;2023-01-19T00:27:58;-0.70;99.90
10312;DHT22;5201;48.776;9.128;2023-01-19T00:30:24;-0.70;99.90
10312;DHT22;5201;48.776;9.128;2023-01-19T00:32:50;-0.70;99.90
10312;DHT22;5201;48.776;9.128;2023-01-19T00:35:15;-0.80;99.90
10312;DHT22;5201;48.776;9.128;2023-01-19T00:37:41;-0.70;99.90
10312;DHT22;5201;48.776;9.128;2023-01-19T00:40:11;-0.70;99.90
10312;DHT22;5201;48.776;9.128;2023-01-19T00:42:37;-1.00;99.90
10312;DHT22;5201;48.776;9.128;2023-01-19T00:45:22;-1.00;99.90
10312;DHT22;5201;48.776;9.128;2023-01-19T00:47:49;-1.20;99.90
10312;DHT22;5201;48.776;9.128;2023-01-19T00:50:19;-1.20;99.90
10312;DHT22;5201;48.776;9.128;2023-01-19T00:52:45;-0.60;99.90
10312;DHT22;5201;48.776;9.128;2023-01-19T00:55:12;-0.80;99.90
10312;DHT22;5201;48.776;9.128;2023-01-19T00:57:39;-0.70;99.90
10312;DHT22;5201;48.776;9.128;2023-01-19T01:00:06;-0.60;99.90
10312;DHT22;5201;48.776;9.128;2023-01-19T01:02:33;-0.70;99.90
10312;DHT22;5201;48.776;9.128;2023-01-19T01:04:59;-0.50;99.90
10312;DHT22;5201;48.776;9.128;2023-01-19T01:07:27;-0.40;99.90
10312;DHT22;5201;48.776;9.128;2023-01-19T01:09:53;-0.40;99.90
10312;DHT22;5201;48.776;9.128;2023-01-19T01:12:18;-0.50;99.90
10312;DHT22;5201;48.776;9.128;2023-01-19T01:14:44;-0.50;99.90
10312;DHT22;5201;48.776;9.128;2023-01-19T01:17:10;-0.60;99.90
10312;DHT22;5201;48.776;9.128;2023-01-19T01:19:41;-0.70;99.90
10312;DHT22;5201;48.776;9.128;2023-01-19T01:22:08;-0.70;99.90
10312;DHT22;5201;48.776;9.128;2023-01-19T01:24:34;-0.80;99.90
10312;DHT22;5201;48.776;9.128;2023-01-19T01:26:59;-0.80;99.90
10312;DHT22;5201;48.776;9.128;2023-01-19T01:29:25;-1.00;99.90
10312;DHT22;5201;48.776;9.128;2023-01-19T01:31:51;-1.10;99.90
10312;DHT22;5201;48.776;9.128;2023-01-19T01:34:16;-1.10;99.90
10312;DHT22;5201;48.776;9.128;2023-01-19T01:36:42;-1.20;99.90
10312;DHT22;5201;48.776;9.128;2023-01-19T01:39:08;-1.20;99.90
10312;DHT22;5201;48.776;9.128;2023-01-19T01:41:34;-1.20;99.90
10312;DHT22;5201;48.776;9.128;2023-01-19T01:43:59;-1.20;99.90
10312;DHT22;5201;48.776;9.128;2023-01-19T01:46:29;-1.10;99.90
10312;DHT22;5201;48.776;9.128;2023-01-19T01:49:12;-1.00;99.90
10312;DHT22;5201;48.776;9.128;2023-01-19T01:51:42;-0.90;99.90
10312;DHT22;5201;48.776;9.128;2023-01-19T01:54:18;-1.00;99.90
10312;DHT22;5201;48.776;9.128;2023-01-19T01:56:47;-0.90;99.90
10312;DHT22;5201;48.776;9.128;2023-01-19T01:59:21;1.10;99.90
10312;DHT22;5201;48.776;9.128;2023-01-19T02:02:03;-0.90;99.90
10312;DHT22;5201;48.776;9.128;2023-01-19T02:04:51;-0.80;99.90
10312;DHT22;5201;48.776;9.128;2023-01-19T02:07:58;-0.90;99.90
10312;DHT22;5201;48.776;9.128;2023-01-19T02:10:44;-1.00;99.90
10312;DHT22;5201;48.776;9.128;2023-01-19T02:13:30;-1.00;99.90
10312;DHT22;5201;48.776;9.128;2023-01-19T02:16:02;-1.10;99.90
10312;DHT22;5201;48.776;9.128;2023-01-19T02:18:31;-1.30;99.90
10312;DHT22;5201;48.776;9.128;2023-01-19T02:21:20;-1.40;99.90
10312;DHT22;5201;48.776;9.128;2023-01-19T02:23:52;-1.30;99.90
10312;DHT22;5201;48.776;9.128;2023-01-19T02:26:39;-1.20;99.90
10312;DHT22;5201;48.776;9.128;2023-01-19T02:29:08;-1.20;99.90
10312;DHT22;5201;48.776;9.128;2023-01-19T02:31:36;-1.20;99.90
10312;DHT22;5201;48.776;9.128;2023-01-19T02:34:03;-1.10;99.90
10312;DHT22;5201;48.776;9.128;2023-01-19T02:36:58;-1.10;99.90
10312;DHT22;5201;48.776;9.128;2023-01-19T02:39:28;-1.10;99.90
10312;DHT22;5201;48.776;9.128;2023-01-19T02:41:59;-1.10;99.90
10312;DHT22;5201;48.776;9.128;2023-01-19T02:44:28;-1.10;99.90
10312;DHT22;5201;48.776;9.128;2023-01-19T02:46:55;-1.10;99.90
10312;DHT22;5201;48.776;9.128;2023-01-19T02:49:20;-1.10;99.90
10312;DHT22;5201;48.776;9.128;2023-01-19T02:51:46;-1.10;99.90
10312;DHT22;5201;48.776;9.128;2023-01-19T02:57:30;-1.20;99.90
10312;DHT22;5201;48.776;9.128;2023-01-19T03:00:16;-1.10;99.90
10312;DHT22;5201;48.776;9.128;2023-01-19T03:03:07;-1.10;99.90
10312;DHT22;5201;48.776;9.128;2023-01-19T03:06:03;-1.10;99.90
10312;DHT22;5201;48.776;9.128;2023-01-19T03:08:51;-1.10;99.90
10312;DHT22;5201;48.776;9.128;2023-01-19T03:11:15;-1.30;99.90
10312;DHT22;5201;48.776;9.128;2023-01-19T03:14:02;-1.30;99.90
10312;DHT22;5201;48.776;9.128;2023-01-19T03:16:38;-1.20;99.90
10312;DHT22;5201;48.776;9.128;2023-01-19T03:19:17;-1.20;99.90
10312;DHT22;5201;48.776;9.128;2023-01-19T03:21:46;-1.30;99.90
10312;DHT22;5201;48.776;9.128;2023-01-19T03:24:14;-1.30;99.90
10312;DHT22;5201;48.776;9.128;2023-01-19T03:26:46;-1.40;99.90
10312;DHT22;5201;48.776;9.128;2023-01-19T03:29:14;-1.30;99.90
10312;DHT22;5201;48.776;9.128;2023-01-19T03:31:43;-1.30;99.90
10312;DHT22;5201;48.776;9.128;2023-01-19T03:34:10;-1.20;99.90
10312;DHT22;5201;48.776;9.128;2023-01-19T03:36:47;-1.30;99.90
10312;DHT22;5201;48.776;9.128;2023-01-19T03:39:17;-1.30;99.90
10312;DHT22;5201;48.776;9.128;2023-01-19T03:41:47;-1.30;99.90
10312;DHT22;5201;48.776;9.128;2023-01-19T03:44:15;-1.20;99.90
10312;DHT22;5201;48.776;9.128;2023-01-19T03:46:40;-1.30;99.90
10312;DHT22;5201;48.776;9.128;2023-01-19T03:49:07;-1.30;99.90
10312;DHT22;5201;48.776;9.128;2023-01-19T03:51:37;-1.40;99.90
10312;DHT22;5201;48.776;9.128;2023-01-19T03:54:04;-1.50;99.90
10312;DHT22;5201;48.776;9.128;2023-01-19T03:56:30;-1.30;99.90
10312;DHT22;5201;48.776;9.128;2023-01-19T03:58:56;-0.70;99.90
10312;DHT22;5201;48.776;9.128;2023-01-19T04:01:21;-1.20;99.90
10312;DHT22;5201;48.776;9.128;2023-01-19T04:03:48;-1.20;99.90
10312;DHT22;5201;48.776;9.128;2023-01-19T04:06:14;1.00;99.90
10312;DHT22;5201;48.776;9.128;2023-01-19T04:08:40;-1.40;99.90
10312;DHT22;5201;48.776;9.128;2023-01-19T04:11:06;-1.40;99.90
10312;DHT22;5201;48.776;9.128;2023-01-19T04:13:33;-1.40;99.90
10312;DHT22;5201;48.776;9.128;2023-01-19T04:16:00;-1.60;99.90
10312;DHT22;5201;48.776;9.128;2023-01-19T04:18:27;-1.60;99.90
10312;DHT22;5201;48.776;9.128;2023-01-19T04:20:53;-1.60;99.90
10312;DHT22;5201;48.776;9.128;2023-01-19T04:23:19;-1.50;99.90
10312;DHT22;5201;48.776;9.128;2023-01-19T04:25:45;-1.60;99.90
10312;DHT22;5201;48.776;9.128;2023-01-19T04:28:10;-1.70;99.90
10312;DHT22;5201;48.776;9.128;2023-01-19T04:30:36;-1.70;99.90
10312;DHT22;5201;48.776;9.128;2023-01-19T04:33:01;-1.70;99.90
10312;DHT22;5201;48.776;9.128;2023-01-19T04:35:27;-1.70;99.90
10312;DHT22;5201;48.776;9.128;2023-01-19T04:37:53;-1.70;99.90
10312;DHT22;5201;48.776;9.128;2023-01-19T04:40:19;-1.50;99.90
10312;DHT22;5201;48.776;9.128;2023-01-19T04:42:44;-1.50;99.90
10312;DHT22;5201;48.776;9.128;2023-01-19T04:45:13;-1.70;99.90
10312;DHT22;5201;48.776;9.128;2023-01-19T04:47:39;-1.40;99.90
10312;DHT22;5201;48.776;9.128;2023-01-19T04:50:07;-1.80;99.90
10312;DHT22;5201;48.776;9.128;2023-01-19T04:52:34;-1.70;99.90
10312;DHT22;5201;48.776;9.128;2023-01-19T04:55:01;-1.60;99.90
10312;DHT22;5201;48.776;9.128;2023-01-19T04:57:27;-1.60;99.90
10312;DHT22;5201;48.776;9.128;2023-01-19T04:59:54;-1.60;99.90
10312;DHT22;5201;48.776;9.128;2023-01-19T05:02:20;-1.70;99.90
10312;DHT22;5201;48.776;9.128;2023-01-19T05:04:47;-1.70;99.90
10312;DHT22;5201;48.776;9.128;2023-01-19T05:07:12;-1.60;99.90
10312;DHT22;5201;48.776;9.128;2023-01-19T05:09:38;-1.60;99.90
10312;DHT22;5201;48.776;9.128;2023-01-19T05:12:04;-1.70;99.90
10312;DHT22;5201;48.776;9.128;2023-01-19T05:14:29;-1.60;99.90
10312;DHT22;5201;48.776;9.128;2023-01-19T05:16:55;-1.70;99.90
10312;DHT22;5201;48.776;9.128;2023-01-19T05:19:21;-1.80;99.90
10312;DHT22;5201;48.776;9.128;2023-01-19T05:21:47;-1.80;99.90
10312;DHT22;5201;48.776;9.128;2023-01-19T05:24:12;-1.70;99.90
10312;DHT22;5201;48.776;9.128;2023-01-19T05:26:38;-1.60;99.90
10312;DHT22;5201;48.776;9.128;2023-01-19T05:29:04;-1.70;99.90
10312;DHT22;5201;48.776;9.128;2023-01-19T05:31:29;-1.60;99.90
10312;DHT22;5201;48.776;9.128;2023-01-19T05:33:55;-1.50;99.90
10312;DHT22;5201;48.776;9.128;2023-01-19T05:36:20;-1.40;99.90
10312;DHT22;5201;48.776;9.128;2023-01-19T05:38:46;-1.30;99.90
10312;DHT22;5201;48.776;9.128;2023-01-19T05:41:11;-1.30;99.90
10312;DHT22;5201;48.776;9.128;2023-01-19T05:43:37;-1.30;99.90
10312;DHT22;5201;48.776;9.128;2023-01-19T05:46:03;-1.20;99.90
10312;DHT22;5201;48.776;9.128;2023-01-19T05:48:29;-1.20;99.90
10312;DHT22;5201;48.776;9.128;2023-01-19T05:50:59;-1.30;99.90
10312;DHT22;5201;48.776;9.128;2023-01-19T05:53:26;-1.40;99.90
10312;DHT22;5201;48.776;9.128;2023-01-19T05:55:52;-1.40;99.90
10312;DHT22;5201;48.776;9.128;2023-01-19T05:58:17;-1.40;99.90
10312;DHT22;5201;48.776;9.128;2023-01-19T06:00:43;-1.40;99.90
10312;DHT22;5201;48.776;9.128;2023-01-19T06:03:08;-1.40;99.90
10312;DHT22;5201;48.776;9.128;2023-01-19T06:05:34;-1.40;99.90
10312;DHT22;5201;48.776;9.128;2023-01-19T06:08:02;-1.40;99.90
10312;DHT22;5201;48.776;9.128;2023-01-19T06:10:28;-1.40;99.90
10312;DHT22;5201;48.776;9.128;2023-01-19T06:12:53;-1.40;99.90
10312;DHT22;5201;48.776;9.128;2023-01-19T06:15:19;-1.40;99.90
10312;DHT22;5201;48.776;9.128;2023-01-19T06:17:44;-1.40;99.90
10312;DHT22;5201;48.776;9.128;2023-01-19T06:20:10;-1.40;99.90
10312;DHT22;5201;48.776;9.128;2023-01-19T06:22:38;-1.40;99.90
10312;DHT22;5201;48.776;9.128;2023-01-19T06:25:04;-1.30;99.90
10312;DHT22;5201;48.776;9.128;2023-01-19T06:27:29;-1.30;99.90
10312;DHT22;5201;48.776;9.128;2023-01-19T06:29:55;-1.40;99.90
10312;DHT22;5201;48.776;9.128;2023-01-19T06:32:20;-1.40;99.90
10312;DHT22;5201;48.776;9.128;2023-01-19T06:34:46;-1.40;99.90
10312;DHT22;5201;48.776;9.128;2023-01-19T06:37:12;-1.40;99.90
10312;DHT22;5201;48.776;9.128;2023-01-19T06:39:38;-1.40;99.90
10312;DHT22;5201;48.776;9.128;2023-01-19T06:42:06;-1.50;99.90
10312;DHT22;5201;48.776;9.128;2023-01-19T06:44:32;-1.50;99.90
10312;DHT22;5201;48.776;9.128;2023-01-19T06:46:57;-1.40;99.90
10312;DHT22;5201;48.776;9.128;2023-01-19T06:49:23;-1.40;99.90
10312;DHT22;5201;48.776;9.128;2023-01-19T06:51:48;-1.40;99.90
10312;DHT22;5201;48.776;9.128;2023-01-19T06:54:14;-1.40;99.90
10312;DHT22;5201;48.776;9.128;2023-01-19T06:56:40;-1.40;99.90
10312;DHT22;5201;48.776;9.128;2023-01-19T06:59:06;-1.30;99.90
10312;DHT22;5201;48.776;9.128;2023-01-19T07:01:31;-1.30;99.90
10312;DHT22;5201;48.776;9.128;2023-01-19T07:03:57;-1.30;99.90
10312;DHT22;5201;48.776;9.128;2023-01-19T07:06:23;-1.30;99.90
10312;DHT22;5201;48.776;9.128;2023-01-19T07:08:48;-1.40;99.90
10312;DHT22;5201;48.776;9.128;2023-01-19T07:11:14;-1.40;99.90
10312;DHT22;5201;48.776;9.128;2023-01-19T07:13:40;-1.40;99.90
10312;DHT22;5201;48.776;9.128;2023-01-19T07:16:07;-1.40;99.90
10312;DHT22;5201;48.776;9.128;2023-01-19T07:18:33;-1.50;99.90
10312;DHT22;5201;48.776;9.128;2023-01-19T07:20:59;-1.40;99.90
10312;DHT22;5201;48.776;9.128;2023-01-19T07:23:25;-1.30;99.90
10312;DHT22;5201;48.776;9.128;2023-01-19T07:25:55;-1.30;99.90
10312;DHT22;5201;48.776;9.128;2023-01-19T07:28:20;-1.30;99.90
10312;DHT22;5201;48.776;9.128;2023-01-19T07:30:50;-1.20;99.90
10312;DHT22;5201;48.776;9.128;2023-01-19T07:33:16;-1.20;99.90
10312;DHT22;5201;48.776;9.128;2023-01-19T07:35:51;-1.10;99.90
10312;DHT22;5201;48.776;9.128;2023-01-19T07:38:17;-1.20;99.90
10312;DHT22;5201;48.776;9.128;2023-01-19T07:40:43;-1.10;99.90
10312;DHT22;5201;48.776;9.128;2023-01-19T07:43:11;-1.10;99.90
10312;DHT22;5201;48.776;9.128;2023-01-19T07:45:37;-1.00;99.90
10312;DHT22;5201;48.776;9.128;2023-01-19T07:48:03;-1.10;99.90
10312;DHT22;5201;48.776;9.128;2023-01-19T07:50:29;-1.10;99.90
10312;DHT22;5201;48.776;9.128;2023-01-19T07:52:55;-1.20;99.90
10312;DHT22;5201;48.776;9.128;2023-01-19T07:55:22;-1.40;99.90
10312;DHT22;5201;48.776;9.128;2023-01-19T07:57:51;-1.60;99.90
10312;DHT22;5201;48.776;9.128;2023-01-19T08:00:18;-1.60;99.90
10312;DHT22;5201;48.776;9.128;2023-01-19T08:02:49;-1.50;99.90
10312;DHT22;5201;48.776;9.128;2023-01-19T08:07:43;-1.40;99.90
10312;DHT22;5201;48.776;9.128;2023-01-19T08:10:15;-1.30;99.90
10312;DHT22;5201;48.776;9.128;2023-01-19T08:12:41;-1.40;99.90
10312;DHT22;5201;48.776;9.128;2023-01-19T08:15:08;-1.30;99.90
10312;DHT22;5201;48.776;9.128;2023-01-19T08:17:34;-1.30;99.90
10312;DHT22;5201;48.776;9.128;2023-01-19T08:20:00;-1.40;99.90
10312;DHT22;5201;48.776;9.128;2023-01-19T08:22:26;-1.40;99.90
10312;DHT22;5201;48.776;9.128;2023-01-19T08:24:52;-1.20;99.90
10312;DHT22;5201;48.776;9.128;2023-01-19T08:27:19;-1.20;99.90
10312;DHT22;5201;48.776;9.128;2023-01-19T08:29:45;-1.20;99.90
10312;DHT22;5201;48.776;9.128;2023-01-19T08:32:10;-1.20;99.90
10312;DHT22;5201;48.776;9.128;2023-01-19T08:34:36;-1.20;99.90
10312;DHT22;5201;48.776;9.128;2023-01-19T08:37:01;-1.20;99.90
10312;DHT22;5201;48.776;9.128;2023-01-19T08:39:27;-1.20;99.90
10312;DHT22;5201;48.776;9.128;2023-01-19T08:41:53;-1.10;99.90
10312;DHT22;5201;48.776;9.128;2023-01-19T08:44:19;-1.10;99.90
10312;DHT22;5201;48.776;9.128;2023-01-19T08:46:44;-1.00;99.90
10312;DHT22;5201;48.776;9.128;2023-01-19T08:49:10;-0.90;99.90
10312;DHT22;5201;48.776;9.128;2023-01-19T08:51:36;-0.90;99.90
10312;DHT22;5201;48.776;9.128;2023-01-19T08:54:02;-0.90;99.90
10312;DHT22;5201;48.776;9.128;2023-01-19T08:56:28;-0.80;99.90
10312;DHT22;5201;48.776;9.128;2023-01-19T08:58:54;-0.70;99.90
10312;DHT22;5201;48.776;9.128;2023-01-19T09:01:19;-0.80;99.90
10312;DHT22;5201;48.776;9.128;2023-01-19T09:03:46;-0.80;99.90
10312;DHT22;5201;48.776;9.128;2023-01-19T09:06:14;-0.90;99.90
10312;DHT22;5201;48.776;9.128;2023-01-19T09:08:42;-0.80;99.90
10312;DHT22;5201;48.776;9.128;2023-01-19T09:11:12;-0.80;99.90
10312;DHT22;5201;48.776;9.128;2023-01-19T09:13:38;-0.60;99.90
10312;DHT22;5201;48.776;9.128;2023-01-19T09:16:05;-0.50;99.90
10312;DHT22;5201;48.776;9.128;2023-01-19T09:18:32;-0.30;99.90
10312;DHT22;5201;48.776;9.128;2023-01-19T09:20:59;0.00;99.90
10312;DHT22;5201;48.776;9.128;2023-01-19T09:23:25;0.20;99.90
10312;DHT22;5201;48.776;9.128;2023-01-19T09:25:56;1.60;99.90
10312;DHT22;5201;48.776;9.128;2023-01-19T09:28:22;0.50;99.90
10312;DHT22;5201;48.776;9.128;2023-01-19T09:30:48;0.50;99.90
10312;DHT22;5201;48.776;9.128;2023-01-19T09:33:16;0.60;99.90
10312;DHT22;5201;48.776;9.128;2023-01-19T09:35:43;0.60;99.90
10312;DHT22;5201;48.776;9.128;2023-01-19T09:38:10;0.60;99.90
10312;DHT22;5201;48.776;9.128;2023-01-19T09:40:44;0.70;99.90
10312;DHT22;5201;48.776;9.128;2023-01-19T09:46:12;1.00;99.90
10312;DHT22;5201;48.776;9.128;2023-01-19T09:48:49;1.20;99.90
10312;DHT22;5201;48.776;9.128;2023-01-19T09:51:27;1.10;99.90
10312;DHT22;5201;48.776;9.128;2023-01-19T09:56:28;1.00;99.90
10312;DHT22;5201;48.776;9.128;2023-01-19T09:58:54;0.90;99.90
10312;DHT22;5201;48.776;9.128;2023-01-19T10:01:36;0.90;99.90
10312;DHT22;5201;48.776;9.128;2023-01-19T10:04:43;1.10;99.90
10312;DHT22;5201;48.776;9.128;2023-01-19T10:07:37;1.30;99.90
10312;DHT22;5201;48.776;9.128;2023-01-19T10:10:20;1.20;99.90
10312;DHT22;5201;48.776;9.128;2023-01-19T10:18:25;1.20;99.90
10312;DHT22;5201;48.776;9.128;2023-01-19T10:21:05;1.00;99.90
10312;DHT22;5201;48.776;9.128;2023-01-19T10:26:09;1.00;99.90
10312;DHT22;5201;48.776;9.128;2023-01-19T10:28:37;1.10;99.90
10312;DHT22;5201;48.776;9.128;2023-01-19T10:31:04;1.20;99.90
10312;DHT22;5201;48.776;9.128;2023-01-19T10:33:32;1.40;99.90
10312;DHT22;5201;48.776;9.128;2023-01-19T10:36:09;1.20;99.90
10312;DHT22;5201;48.776;9.128;2023-01-19T10:38:39;1.30;99.90
10312;DHT22;5201;48.776;9.128;2023-01-19T10:41:12;1.10;99.90
10312;DHT22;5201;48.776;9.128;2023-01-19T10:43:43;1.20;99.90
10312;DHT22;5201;48.776;9.128;2023-01-19T10:46:42;1.40;99.90
10312;DHT22;5201;48.776;9.128;2023-01-19T10:51:58;1.50;99.90
10312;DHT22;5201;48.776;9.128;2023-01-19T10:54:25;1.50;99.90
10312;DHT22;5201;48.776;9.128;2023-01-19T10:56:57;1.60;99.90
10312;DHT22;5201;48.776;9.128;2023-01-19T10:59:36;1.70;99.90
10312;DHT22;5201;48.776;9.128;2023-01-19T11:02:15;1.60;99.90
10312;DHT22;5201;48.776;9.128;2023-01-19T11:04:42;1.80;99.90
10312;DHT22;5201;48.776;9.128;2023-01-19T11:07:30;1.90;99.90
10312;DHT22;5201;48.776;9.128;2023-01-19T11:12:58;2.10;99.90
10312;DHT22;5201;48.776;9.128;2023-01-19T11:15:33;2.00;99.90
10312;DHT22;5201;48.776;9.128;2023-01-19T11:18:04;2.10;99.90
10312;DHT22;5201;48.776;9.128;2023-01-19T11:20:49;2.20;99.90
10312;DHT22;5201;48.776;9.128;2023-01-19T11:25:45;2.20;99.90
10312;DHT22;5201;48.776;9.128;2023-01-19T11:28:33;2.20;99.90
10312;DHT22;5201;48.776;9.128;2023-01-19T11:31:00;2.20;99.90
10312;DHT22;5201;48.776;9.128;2023-01-19T11:33:33;2.10;99.90
10312;DHT22;5201;48.776;9.128;2023-01-19T11:38:43;2.00;99.90
10312;DHT22;5201;48.776;9.128;2023-01-19T11:44:04;1.60;99.90
10312;DHT22;5201;48.776;9.128;2023-01-19T11:46:37;1.60;99.90
10312;DHT22;5201;48.776;9.128;2023-01-19T11:49:13;1.50;99.90
10312;DHT22;5201;48.776;9.128;2023-01-19T11:52:23;1.50;99.90
10312;DHT22;5201;48.776;9.128;2023-01-19T11:57:46;2.00;99.90
10312;DHT22;5201;48.776;9.128;2023-01-19T12:00:27;2.20;99.90
10312;DHT22;5201;48.776;9.128;2023-01-19T12:03:09;2.30;99.90
10312;DHT22;5201;48.776;9.128;2023-01-19T12:05:40;2.30;99.90
10312;DHT22;5201;48.776;9.128;2023-01-19T12:08:13;2.40;99.90
10312;DHT22;5201;48.776;9.128;2023-01-19T12:10:43;2.40;99.90
10312;DHT22;5201;48.776;9.128;2023-01-19T12:13:30;2.60;99.90
10312;DHT22;5201;48.776;9.128;2023-01-19T12:18:29;2.40;99.90
10312;DHT22;5201;48.776;9.128;2023-01-19T12:20:57;2.50;99.90
10312;DHT22;5201;48.776;9.128;2023-01-19T12:29:10;2.40;99.90
10312;DHT22;5201;48.776;9.128;2023-01-19T12:31:36;2.50;99.90
10312;DHT22;5201;48.776;9.128;2023-01-19T12:34:27;2.60;99.90
10312;DHT22;5201;48.776;9.128;2023-01-19T12:37:03;2.60;99.90
10312;DHT22;5201;48.776;9.128;2023-01-19T12:39:29;2.60;99.90
10312;DHT22;5201;48.776;9.128;2023-01-19T12:42:05;2.50;99.90
10312;DHT22;5201;48.776;9.128;2023-01-19T12:44:32;2.60;99.90
10312;DHT22;5201;48.776;9.128;2023-01-19T12:49:43;2.70;99.90
10312;DHT22;5201;48.776;9.128;2023-01-19T12:54:56;2.80;99.90
10312;DHT22;5201;48.776;9.128;2023-01-19T12:57:28;2.60;99.90
10312;DHT22;5201;48.776;9.128;2023-01-19T12:59:56;2.70;99.90
10312;DHT22;5201;48.776;9.128;2023-01-19T13:05:23;2.80;99.90
10312;DHT22;5201;48.776;9.128;2023-01-19T13:10:53;2.90;99.90
10312;DHT22;5201;48.776;9.128;2023-01-19T13:15:59;2.90;99.90
10312;DHT22;5201;48.776;9.128;2023-01-19T13:21:31;2.90;99.90
10312;DHT22;5201;48.776;9.128;2023-01-19T13:24:12;2.80;99.90
10312;DHT22;5201;48.776;9.128;2023-01-19T13:26:51;2.70;99.90
10312;DHT22;5201;48.776;9.128;2023-01-19T13:29:28;2.50;99.90
10312;DHT22;5201;48.776;9.128;2023-01-19T13:31:57;2.50;99.90
10312;DHT22;5201;48.776;9.128;2023-01-19T13:34:34;2.50;99.90
10312;DHT22;5201;48.776;9.128;2023-01-19T13:37:03;2.40;99.90
10312;DHT22;5201;48.776;9.128;2023-01-19T13:39:35;2.30;99.90
10312;DHT22;5201;48.776;9.128;2023-01-19T13:42:16;2.30;99.90
10312;DHT22;5201;48.776;9.128;2023-01-19T13:44:49;2.00;99.90
10312;DHT22;5201;48.776;9.128;2023-01-19T13:47:34;1.80;99.90
10312;DHT22;5201;48.776;9.128;2023-01-19T13:50:02;1.80;99.90
10312;DHT22;5201;48.776;9.128;2023-01-19T13:52:28;1.80;99.90
10312;DHT22;5201;48.776;9.128;2023-01-19T13:54:59;2.00;99.90
10312;DHT22;5201;48.776;9.128;2023-01-19T13:57:37;2.30;99.90
10312;DHT22;5201;48.776;9.128;2023-01-19T14:00:28;2.30;99.90
10312;DHT22;5201;48.776;9.128;2023-01-19T14:03:00;2.40;99.90
10312;DHT22;5201;48.776;9.128;2023-01-19T14:05:37;2.30;99.90
10312;DHT22;5201;48.776;9.128;2023-01-19T14:10:29;2.50;99.90
10312;DHT22;5201;48.776;9.128;2023-01-19T14:13:02;2.70;99.90
10312;DHT22;5201;48.776;9.128;2023-01-19T14:15:30;2.70;99.90
10312;DHT22;5201;48.776;9.128;2023-01-19T14:21:12;2.60;99.90
10312;DHT22;5201;48.776;9.128;2023-01-19T14:23:54;2.70;99.90
10312;DHT22;5201;48.776;9.128;2023-01-19T14:26:45;2.70;99.90
10312;DHT22;5201;48.776;9.128;2023-01-19T14:29:24;2.70;99.90
10312;DHT22;5201;48.776;9.128;2023-01-19T14:34:34;2.80;99.90
10312;DHT22;5201;48.776;9.128;2023-01-19T14:37:01;2.90;99.90
10312;DHT22;5201;48.776;9.128;2023-01-19T14:39:30;2.90;99.90
10312;DHT22;5201;48.776;9.128;2023-01-19T14:41:58;2.90;99.90
10312;DHT22;5201;48.776;9.128;2023-01-19T14:44:36;3.00;99.90
10312;DHT22;5201;48.776;9.128;2023-01-19T14:47:03;3.00;99.90
10312;DHT22;5201;48.776;9.128;2023-01-19T14:49:39;2.90;99.90
10312;DHT22;5201;48.776;9.128;2023-01-19T14:52:27;3.10;99.90
10312;DHT22;5201;48.776;9.128;2023-01-19T14:54:54;3.00;99.90
10312;DHT22;5201;48.776;9.128;2023-01-19T14:57:20;3.00;99.90
10312;DHT22;5201;48.776;9.128;2023-01-19T14:59:46;3.00;99.90
10312;DHT22;5201;48.776;9.128;2023-01-19T15:02:14;3.10;99.90
10312;DHT22;5201;48.776;9.128;2023-01-19T15:04:39;3.20;99.90
10312;DHT22;5201;48.776;9.128;2023-01-19T15:07:05;3.20;99.90
10312;DHT22;5201;48.776;9.128;2023-01-19T15:09:35;3.20;99.90
10312;DHT22;5201;48.776;9.128;2023-01-19T15:12:01;3.20;99.90
10312;DHT22;5201;48.776;9.128;2023-01-19T15:14:26;3.10;99.90
10312;DHT22;5201;48.776;9.128;2023-01-19T15:16:52;3.10;99.90
10312;DHT22;5201;48.776;9.128;2023-01-19T15:19:18;3.10;99.90
10312;DHT22;5201;48.776;9.128;2023-01-19T15:21:44;3.20;99.90
10312;DHT22;5201;48.776;9.128;2023-01-19T15:24:12;3.20;99.90
10312;DHT22;5201;48.776;9.128;2023-01-19T15:26:40;3.20;99.90
10312;DHT22;5201;48.776;9.128;2023-01-19T15:31:39;3.10;99.90
10312;DHT22;5201;48.776;9.128;2023-01-19T15:34:04;3.00;99.90
10312;DHT22;5201;48.776;9.128;2023-01-19T15:36:30;3.00;99.90
10312;DHT22;5201;48.776;9.128;2023-01-19T15:38:55;3.00;99.90
10312;DHT22;5201;48.776;9.128;2023-01-19T15:41:25;2.90;99.90
10312;DHT22;5201;48.776;9.128;2023-01-19T15:43:51;2.90;99.90
10312;DHT22;5201;48.776;9.128;2023-01-19T15:46:21;2.90;99.90
10312;DHT22;5201;48.776;9.128;2023-01-19T15:48:48;2.90;99.90
10312;DHT22;5201;48.776;9.128;2023-01-19T15:51:16;3.70;99.90
10312;DHT22;5201;48.776;9.128;2023-01-19T15:53:42;3.00;99.90
10312;DHT22;5201;48.776;9.128;2023-01-19T15:56:16;3.00;99.90
10312;DHT22;5201;48.776;9.128;2023-01-19T15:58:42;3.10;99.90
10312;DHT22;5201;48.776;9.128;2023-01-19T16:01:13;3.20;99.90
10312;DHT22;5201;48.776;9.128;2023-01-19T16:03:39;3.00;99.90
10312;DHT22;5201;48.776;9.128;2023-01-19T16:06:05;3.00;99.90
10312;DHT22;5201;48.776;9.128;2023-01-19T16:08:31;3.00;99.90
10312;DHT22;5201;48.776;9.128;2023-01-19T16:10:56;3.00;99.90
10312;DHT22;5201;48.776;9.128;2023-01-19T16:13:22;3.00;99.90
10312;DHT22;5201;48.776;9.128;2023-01-19T16:15:48;2.90;99.90
10312;DHT22;5201;48.776;9.128;2023-01-19T16:18:13;3.00;99.90
10312;DHT22;5201;48.776;9.128;2023-01-19T16:20:39;3.00;99.90
10312;DHT22;5201;48.776;9.128;2023-01-19T16:23:05;3.00;99.90
10312;DHT22;5201;48.776;9.128;2023-01-19T16:25:30;3.00;99.90
10312;DHT22;5201;48.776;9.128;2023-01-19T16:27:56;3.00;99.90
10312;DHT22;5201;48.776;9.128;2023-01-19T16:30:22;2.90;99.90
10312;DHT22;5201;48.776;9.128;2023-01-19T16:32:48;2.90;99.90
10312;DHT22;5201;48.776;9.128;2023-01-19T16:35:13;2.80;99.90
10312;DHT22;5201;48.776;9.128;2023-01-19T16:37:40;2.80;99.90
10312;DHT22;5201;48.776;9.128;2023-01-19T16:40:06;2.80;99.90
10312;DHT22;5201;48.776;9.128;2023-01-19T16:42:32;2.80;99.90
10312;DHT22;5201;48.776;9.128;2023-01-19T16:44:58;2.60;99.90
10312;DHT22;5201;48.776;9.128;2023-01-19T16:47:24;2.50;99.90
10312;DHT22;5201;48.776;9.128;2023-01-19T16:49:49;2.50;99.90
10312;DHT22;5201;48.776;9.128;2023-01-19T16:52:15;2.50;99.90
10312;DHT22;5201;48.776;9.128;2023-01-19T16:54:41;2.50;99.90
10312;DHT22;5201;48.776;9.128;2023-01-19T16:57:07;2.50;99.90
10312;DHT22;5201;48.776;9.128;2023-01-19T16:59:33;2.60;99.90
10312;DHT22;5201;48.776;9.128;2023-01-19T17:01:59;2.70;99.90
10312;DHT22;5201;48.776;9.128;2023-01-19T17:04:25;2.70;99.90
10312;DHT22;5201;48.776;9.128;2023-01-19T17:06:51;2.80;99.90
10312;DHT22;5201;48.776;9.128;2023-01-19T17:09:17;2.80;99.90
10312;DHT22;5201;48.776;9.128;2023-01-19T17:11:43;2.60;99.90
10312;DHT22;5201;48.776;9.128;2023-01-19T17:14:14;2.50;99.90
10312;DHT22;5201;48.776;9.128;2023-01-19T17:16:40;2.40;99.90
10312;DHT22;5201;48.776;9.128;2023-01-19T17:19:07;2.30;99.90